Time;durP1;ratioP1;P1;durP2;ratioP2;P2;SDS_P1;SDS_P2;PMS_P1;PMS_P2;Temp;Humidity;BMP_temperature;BMP_pressure;BME280_temperature;BME280_humidity;BME280_pressure;Samples;Min_cycle;Max_cycle;Signal;HPM_P1;HPM_P2
2023/05/22 08:57:42;;;;;;;83.40;55.38;;;;;;;16.57;100.00;101352.88;5069029;28;20387;-69
2023/05/22 09:00:08;;;;;;;79.80;55.17;;;;;;;16.54;100.00;101347.94;5069502;28;20028;-70
2023/05/22 09:02:33;;;;;;;81.93;53.95;;;;;;;16.48;100.00;101347.03;5034136;28;20052;-69
2023/05/22 09:05:04;;;;;;;76.20;52.17;;;;;;;16.57;100.00;101341.94;5024011;28;20129;-70
2023/05/22 09:07:29;;;;;;;73.85;51.15;;;;;;;16.61;100.00;101337.63;5009531;28;20037;-70
2023/05/22 09:09:55;;;;;;;76.05;51.13;;;;;;;16.70;100.00;101346.19;5014260;28;20026;-69
2023/05/22 09:12:20;;;;;;;70.38;48.30;;;;;;;16.69;100.00;101344.56;5029082;28;20036;-75
2023/05/22 09:14:46;;;;;;;68.97;49.35;;;;;;;16.84;100.00;101348.31;5031849;28;20415;-70
2023/05/22 09:17:14;;;;;;;67.90;48.33;;;;;;;16.84;100.00;101353.75;5026673;28;20342;-69
2023/05/22 09:19:45;;;;;;;66.30;48.15;;;;;;;16.90;100.00;101345.69;5027178;28;20090;-70
2023/05/22 09:22:11;;;;;;;66.55;47.47;;;;;;;16.98;100.00;101358.88;5028497;28;20061;-69
2023/05/22 09:24:39;;;;;;;67.78;46.47;;;;;;;16.98;100.00;101354.25;5048979;28;20037;-69
2023/05/22 09:27:08;;;;;;;57.53;45.53;;;;;;;16.95;100.00;101346.56;5043171;28;20037;-72
2023/05/22 09:30:07;;;;;;;61.60;44.47;;;;;;;17.03;100.00;101352.66;5023142;28;20420;-72
2023/05/22 09:32:32;;;;;;;57.75;42.92;;;;;;;17.18;100.00;101347.34;5043238;28;20048;-69
2023/05/22 09:35:03;;;;;;;61.92;45.97;;;;;;;17.16;100.00;101349.50;5049469;28;20048;-70
2023/05/22 09:37:32;;;;;;;58.47;43.43;;;;;;;17.25;100.00;101345.22;5049192;28;20021;-71
2023/05/22 09:39:57;;;;;;;57.03;43.58;;;;;;;17.40;100.00;101343.75;5032241;28;20068;-71
2023/05/22 09:42:23;;;;;;;58.47;43.40;;;;;;;17.47;100.00;101345.19;5009619;28;20066;-70
2023/05/22 09:44:50;;;;;;;62.05;43.05;;;;;;;17.51;100.00;101340.00;5009348;28;20045;-71
2023/05/22 09:47:15;;;;;;;61.88;41.97;;;;;;;17.52;100.00;101342.47;5024149;28;20053;-71
2023/05/22 09:49:42;;;;;;;50.35;39.53;;;;;;;17.60;100.00;101337.63;5027389;28;20068;-71
2023/05/22 09:52:11;;;;;;;50.50;39.75;;;;;;;17.65;100.00;101335.75;5029087;28;20026;-74
2023/05/22 09:54:42;;;;;;;53.72;39.60;;;;;;;17.74;100.00;101338.84;5017216;28;20018;-71
2023/05/22 09:57:12;;;;;;;48.53;38.53;;;;;;;17.69;100.00;101336.06;5009214;28;20042;-72
2023/05/22 09:59:41;;;;;;;49.42;38.97;;;;;;;17.85;100.00;101342.50;5016575;28;20025;-70
2023/05/22 10:02:07;;;;;;;46.08;37.28;;;;;;;17.78;100.00;101328.19;5008050;28;20121;-70
2023/05/22 10:04:33;;;;;;;50.17;37.25;;;;;;;17.91;100.00;101335.19;5008479;28;20101;-71
2023/05/22 10:07:02;;;;;;;47.88;38.17;;;;;;;17.82;100.00;101340.28;5007671;28;20405;-71
2023/05/22 10:09:33;;;;;;;46.50;37.25;;;;;;;17.92;100.00;101340.41;4995130;28;20023;-71
2023/05/22 10:12:03;;;;;;;44.63;36.00;;;;;;;18.03;100.00;101341.28;5002680;28;20037;-71
2023/05/22 10:14:29;;;;;;;48.40;36.53;;;;;;;18.05;100.00;101331.69;5011935;28;20038;-71
2023/05/22 10:16:56;;;;;;;46.15;34.83;;;;;;;18.17;100.00;101328.78;4996774;28;20025;-72
2023/05/22 10:19:25;;;;;;;44.40;35.45;;;;;;;18.12;100.00;101333.41;4982065;28;20027;-72
2023/05/22 10:21:55;;;;;;;43.72;35.75;;;;;;;18.11;100.00;101332.56;4995658;28;20068;-72
2023/05/22 10:24:22;;;;;;;45.60;35.13;;;;;;;18.27;100.00;101332.66;4995789;28;20021;-70
2023/05/22 10:26:48;;;;;;;42.25;33.22;;;;;;;18.26;100.00;101333.78;4994839;28;20038;-72
2023/05/22 10:30:09;;;;;;;40.95;33.78;;;;;;;18.33;100.00;101328.88;5014269;28;20029;-72
2023/05/22 10:32:42;;;;;;;42.00;33.83;;;;;;;18.38;100.00;101329.72;4992301;28;20121;-72
2023/05/22 10:35:27;;;;;;;42.28;34.03;;;;;;;18.54;100.00;101329.78;4994240;28;20038;-71
2023/05/22 10:38:06;;;;;;;38.42;32.55;;;;;;;18.71;100.00;101324.13;4991949;28;20018;-70
2023/05/22 10:40:33;;;;;;;40.40;32.08;;;;;;;18.81;100.00;101324.16;5003991;28;20096;-70
2023/05/22 10:43:00;;;;;;;37.90;31.85;;;;;;;18.86;100.00;101326.13;5015029;28;20030;-73
2023/05/22 10:45:30;;;;;;;40.58;32.55;;;;;;;19.00;100.00;101318.22;5014769;28;20069;-71
2023/05/22 10:48:10;;;;;;;42.40;33.25;;;;;;;19.25;100.00;101318.28;4990882;28;20034;-72
2023/05/22 10:50:37;;;;;;;41.08;32.10;;;;;;;19.23;100.00;101325.94;4975652;28;20027;-72
2023/05/22 10:53:25;;;;;;;38.72;30.48;;;;;;;19.32;100.00;101319.91;4976118;28;20473;-72
2023/05/22 10:56:01;;;;;;;40.45;31.30;;;;;;;19.46;100.00;101315.53;4987151;28;20478;-72
2023/05/22 10:58:31;;;;;;;38.33;30.60;;;;;;;19.50;100.00;101313.88;5010165;28;20037;-72
2023/05/22 11:01:19;;;;;;;41.10;31.77;;;;;;;19.52;100.00;101319.94;4991565;28;20454;-72
2023/05/22 11:04:11;;;;;;;39.05;31.75;;;;;;;19.57;100.00;101317.19;4998864;28;20381;-72
2023/05/22 11:06:36;;;;;;;38.55;30.20;;;;;;;19.81;100.00;101311.19;5014405;28;20075;-71
2023/05/22 11:09:30;;;;;;;36.05;29.00;;;;;;;19.83;100.00;101309.78;5014548;28;20022;-71
2023/05/22 11:12:16;;;;;;;40.15;29.25;;;;;;;20.08;100.00;101302.63;5014336;28;20029;-72
2023/05/22 11:14:42;;;;;;;37.35;28.83;;;;;;;20.18;100.00;101304.50;5000134;28;20615;-70
2023/05/22 11:17:11;;;;;;;39.00;28.40;;;;;;;20.23;100.00;101303.69;4982743;28;20040;-71
2023/05/22 11:19:39;;;;;;;35.80;27.55;;;;;;;20.23;100.00;101310.00;4991931;28;20022;-70
2023/05/22 11:22:04;;;;;;;32.60;27.00;;;;;;;20.38;100.00;101297.31;4993338;28;20109;-71
2023/05/22 11:24:33;;;;;;;35.83;27.58;;;;;;;20.45;100.00;101306.09;4994533;28;20026;-71
2023/05/22 11:27:05;;;;;;;35.58;26.77;;;;;;;20.63;100.00;101297.22;4993984;28;20034;-70
2023/05/22 11:29:31;;;;;;;35.10;27.73;;;;;;;20.63;100.00;101308.19;4994261;28;20041;-70
2023/05/22 11:32:00;;;;;;;33.65;27.60;;;;;;;20.59;100.00;101309.06;4993885;28;20034;-70
2023/05/22 11:34:26;;;;;;;32.10;26.83;;;;;;;20.68;100.00;101301.88;4991781;28;20217;-70
2023/05/22 11:36:56;;;;;;;32.40;25.85;;;;;;;20.82;100.00;101302.94;4993612;28;20022;-70
2023/05/22 11:39:21;;;;;;;32.83;25.88;;;;;;;20.93;100.00;101303.69;4993933;28;20030;-71
2023/05/22 11:41:47;;;;;;;32.47;24.95;;;;;;;20.88;100.00;101303.72;5008733;28;20576;-70
2023/05/22 11:44:12;;;;;;;32.28;26.13;;;;;;;20.92;100.00;101302.03;4993896;28;20026;-71
2023/05/22 11:46:38;;;;;;;28.50;24.92;;;;;;;20.99;100.00;101310.81;4993637;28;20480;-70
2023/05/22 11:49:03;;;;;;;31.95;26.40;;;;;;;21.11;100.00;101302.22;4992745;28;20066;-71
2023/05/22 11:51:29;;;;;;;32.90;25.25;;;;;;;21.16;100.00;101298.59;4992403;28;20026;-71
2023/05/22 11:53:56;;;;;;;37.00;25.95;;;;;;;21.19;100.00;101300.78;4992989;28;20025;-71
2023/05/22 11:56:21;;;;;;;30.27;25.10;;;;;;;21.36;100.00;101292.13;4992884;28;20125;-71
2023/05/22 11:58:50;;;;;;;30.80;25.15;;;;;;;21.37;100.00;101289.06;5003888;28;20545;-70
2023/05/22 12:01:16;;;;;;;33.95;25.58;;;;;;;21.53;100.00;101302.75;5001999;28;20041;-71
2023/05/22 12:03:41;;;;;;;34.00;26.70;;;;;;;21.60;96.69;101292.22;4993334;28;20029;-71
2023/05/22 12:06:08;;;;;;;33.55;25.17;;;;;;;21.66;96.40;101296.56;4994023;28;20026;-71
2023/05/22 12:08:33;;;;;;;32.00;23.80;;;;;;;21.87;96.94;101288.13;4993663;28;20626;-71
2023/05/22 12:10:59;;;;;;;31.88;25.00;;;;;;;22.01;90.46;101291.00;4992616;28;20034;-70
2023/05/22 12:13:29;;;;;;;33.72;25.40;;;;;;;21.98;89.80;101292.41;4993785;28;20565;-70
2023/05/22 12:15:59;;;;;;;30.35;24.30;;;;;;;21.80;89.60;101290.41;4992793;28;20041;-70
2023/05/22 12:18:24;;;;;;;33.08;24.50;;;;;;;21.70;93.18;101281.13;5007942;28;20030;-70
2023/05/22 12:20:56;;;;;;;31.55;24.85;;;;;;;21.66;96.86;101284.75;5013093;28;20021;-71
2023/05/22 12:23:24;;;;;;;31.88;22.83;;;;;;;21.68;100.00;101283.34;5013328;28;20026;-72
2023/05/22 12:25:58;;;;;;;33.80;24.38;;;;;;;21.80;95.79;101290.41;5001063;28;20377;-73
2023/05/22 12:28:24;;;;;;;31.05;24.05;;;;;;;21.91;90.78;101291.97;4992871;28;20030;-70
2023/05/22 12:30:54;;;;;;;30.85;24.23;;;;;;;21.73;91.20;101293.50;4993109;28;20031;-72
2023/05/22 12:33:24;;;;;;;33.20;23.58;;;;;;;21.71;95.66;101293.78;4992731;28;20029;-70
2023/05/22 12:35:51;;;;;;;30.75;23.85;;;;;;;21.76;95.18;101290.97;4992848;28;20547;-72
2023/05/22 12:38:20;;;;;;;33.40;23.45;;;;;;;21.93;91.80;101290.53;4992136;28;20504;-74
2023/05/22 12:40:45;;;;;;;31.65;23.50;;;;;;;21.87;92.13;101290.88;4992953;28;20117;-73
2023/05/22 12:43:11;;;;;;;32.58;23.10;;;;;;;21.87;99.85;101291.69;4990467;28;20109;-74
2023/05/22 12:45:36;;;;;;;29.77;23.45;;;;;;;21.97;97.95;101285.28;4993374;28;20034;-74
2023/05/22 12:48:02;;;;;;;29.83;22.25;;;;;;;21.95;89.09;101293.00;4993053;28;20031;-74
2023/05/22 12:50:27;;;;;;;31.42;22.55;;;;;;;21.99;89.80;101291.31;4993260;28;20117;-72
2023/05/22 12:52:52;;;;;;;36.50;23.58;;;;;;;21.92;89.18;101280.66;4991772;28;20034;-71
2023/05/22 12:55:17;;;;;;;29.67;23.17;;;;;;;21.89;91.26;101277.63;5005413;28;20029;-72
2023/05/22 12:57:43;;;;;;;33.00;23.40;;;;;;;21.92;95.81;101282.56;4992735;28;20026;-72
2023/05/22 13:00:09;;;;;;;33.22;23.65;;;;;;;21.94;93.83;101280.34;4992226;28;20417;-73
2023/05/22 13:02:34;;;;;;;28.17;22.95;;;;;;;21.92;84.80;101288.06;5002091;28;20125;-72
2023/05/22 13:04:59;;;;;;;32.70;24.42;;;;;;;21.89;82.56;101283.13;5012569;28;20391;-72
2023/05/22 13:07:25;;;;;;;35.30;23.65;;;;;;;21.91;85.28;101273.47;5013004;28;20029;-74
2023/05/22 13:09:50;;;;;;;35.28;24.05;;;;;;;21.97;90.77;101273.41;5012851;28;20080;-73
2023/05/22 13:12:16;;;;;;;26.70;22.42;;;;;;;22.21;88.98;101273.41;5012475;28;20436;-72
2023/05/22 13:14:41;;;;;;;29.75;22.90;;;;;;;22.46;82.09;101275.09;5001265;28;20114;-74
2023/05/22 13:17:06;;;;;;;35.95;22.33;;;;;;;22.59;77.65;101268.84;4991753;28;20032;-75
2023/05/22 13:19:32;;;;;;;27.08;21.35;;;;;;;22.59;74.05;101274.38;4991128;28;20018;-75
2023/05/22 13:21:57;;;;;;;27.27;20.95;;;;;;;22.61;78.09;101283.16;4987526;28;20422;-73
2023/05/22 13:24:22;;;;;;;31.45;22.20;;;;;;;22.45;77.95;101271.53;5008388;28;20546;-73
2023/05/22 13:26:48;;;;;;;28.95;21.15;;;;;;;22.42;77.58;101269.34;5006471;28;20034;-73
2023/05/22 13:29:13;;;;;;;35.55;21.52;;;;;;;22.59;77.35;101285.41;4993378;28;20126;-74
2023/05/22 13:31:39;;;;;;;28.50;21.33;;;;;;;22.70;75.77;101274.25;4990263;28;20446;-71
2023/05/22 13:34:04;;;;;;;30.48;21.60;;;;;;;22.59;76.14;101288.16;4991784;28;20057;-71
2023/05/22 13:36:30;;;;;;;30.90;20.45;;;;;;;22.47;76.50;101277.56;4993551;28;20057;-73
2023/05/22 13:38:55;;;;;;;33.08;21.42;;;;;;;22.51;78.82;101279.72;4996644;28;20488;-74
2023/05/22 13:41:20;;;;;;;28.48;20.50;;;;;;;22.59;78.27;101290.09;4992490;28;20034;-72
2023/05/22 13:43:46;;;;;;;30.60;20.98;;;;;;;22.54;77.13;101282.72;4994216;28;20080;-72
2023/05/22 13:46:11;;;;;;;30.23;20.98;;;;;;;22.61;78.35;101287.88;4996094;28;20026;-72
2023/05/22 13:48:36;;;;;;;28.75;19.73;;;;;;;22.60;76.88;101288.97;4995881;28;20026;-72
2023/05/22 13:51:01;;;;;;;29.13;19.75;;;;;;;22.63;73.51;101288.38;4994600;28;20026;-71
2023/05/22 13:53:27;;;;;;;33.30;19.98;;;;;;;22.64;74.09;101284.50;4996004;28;20115;-72
2023/05/22 13:55:53;;;;;;;28.67;19.25;;;;;;;22.59;75.42;101284.59;4995474;28;20178;-73
2023/05/22 13:58:19;;;;;;;27.42;19.35;;;;;;;22.53;78.14;101283.03;4976873;28;20031;-73
2023/05/22 14:00:44;;;;;;;30.38;19.45;;;;;;;22.39;74.01;101283.72;4977493;28;20029;-71
2023/05/22 14:03:15;;;;;;;26.70;19.00;;;;;;;22.45;75.28;101281.72;4996612;28;20165;-70
2023/05/22 14:05:41;;;;;;;;;;;;;;;22.55;77.78;101287.09;4995886;28;20248;-72
2023/05/22 14:08:06;;;;;;;26.65;19.27;;;;;;;22.47;75.48;101287.78;4995482;28;20120;-73
2023/05/22 14:10:33;;;;;;;28.25;17.92;;;;;;;22.51;75.86;101293.50;4995078;28;20033;-70
2023/05/22 14:12:58;;;;;;;29.95;18.52;;;;;;;22.53;76.37;101292.09;4995585;28;20351;-75
2023/05/22 14:15:23;;;;;;;29.02;18.13;;;;;;;22.65;77.15;101295.25;4992512;28;20041;-71
2023/05/22 14:17:49;;;;;;;27.70;19.02;;;;;;;22.85;72.95;101295.28;4994616;28;20109;-72
2023/05/22 14:20:14;;;;;;;32.55;19.58;;;;;;;22.96;72.01;101291.25;4995184;28;20022;-72
2023/05/22 14:22:39;;;;;;;29.70;18.33;;;;;;;23.03;73.91;101297.22;4993801;28;20112;-71
2023/05/22 14:25:05;;;;;;;27.05;18.45;;;;;;;22.89;73.62;101299.91;4994878;28;20283;-71
2023/05/22 14:27:30;;;;;;;28.33;19.10;;;;;;;22.78;72.49;101295.63;4995296;28;20030;-71
2023/05/22 14:29:55;;;;;;;30.70;19.45;;;;;;;22.72;75.13;101297.66;5000413;28;20135;-71
2023/05/22 14:32:21;;;;;;;28.07;19.60;;;;;;;22.58;74.36;101297.53;5015279;28;20030;-70
2023/05/22 14:34:46;;;;;;;30.17;20.50;;;;;;;22.44;75.18;101302.16;5006580;28;20763;-69
2023/05/22 14:37:11;;;;;;;33.30;21.70;;;;;;;22.30;76.54;101296.50;5010484;28;20360;-71
2023/05/22 14:39:36;;;;;;;38.72;23.10;;;;;;;22.27;78.00;101305.34;4995492;28;20273;-72
2023/05/22 14:42:02;;;;;;;33.27;21.40;;;;;;;22.24;79.82;101295.72;4995381;28;20037;-70
2023/05/22 14:44:27;;;;;;;38.53;22.25;;;;;;;22.26;76.70;101295.44;4993258;28;20274;-71
2023/05/22 14:46:53;;;;;;;35.13;21.98;;;;;;;22.44;77.87;101296.63;5024529;28;20057;-70
2023/05/22 14:49:18;;;;;;;34.85;22.52;;;;;;;22.66;74.77;101309.84;5014874;28;20026;-71
2023/05/22 14:51:47;;;;;;;32.70;21.73;;;;;;;22.82;75.90;101299.44;5008222;28;20038;-69
2023/05/22 14:54:19;;;;;;;35.40;21.17;;;;;;;22.89;75.34;101299.06;4994590;28;20053;-71
2023/05/22 14:56:44;;;;;;;35.05;24.23;;;;;;;22.82;75.59;101307.72;4993744;28;20454;-70
2023/05/22 14:59:10;;;;;;;39.67;26.75;;;;;;;22.67;75.42;101310.69;4994858;28;20113;-69
2023/05/22 15:01:37;;;;;;;41.45;25.70;;;;;;;22.51;79.26;101302.63;4999954;28;20478;-69
2023/05/22 15:04:02;;;;;;;38.67;25.85;;;;;;;22.37;80.54;101313.50;4994922;28;20113;-71
2023/05/22 15:06:27;;;;;;;36.92;24.65;;;;;;;22.22;85.14;101319.19;4994227;28;20126;-70
2023/05/22 15:08:53;;;;;;;35.10;24.10;;;;;;;22.02;85.95;101321.03;5000378;28;20030;-71
2023/05/22 15:11:18;;;;;;;38.78;22.52;;;;;;;21.89;88.64;101321.72;5008833;28;20030;-70
2023/05/22 15:13:43;;;;;;;37.83;21.42;;;;;;;21.80;94.64;101331.72;4994733;28;20026;-72
2023/05/22 15:16:09;;;;;;;33.38;20.60;;;;;;;21.74;85.20;101326.25;4994272;28;20381;-71
2023/05/22 15:18:34;;;;;;;37.88;20.38;;;;;;;21.64;88.78;101328.28;4994513;28;20117;-70
2023/05/22 15:20:59;;;;;;;41.83;20.92;;;;;;;21.59;86.57;101320.91;4994465;28;20029;-71
2023/05/22 15:23:25;;;;;;;40.00;20.65;;;;;;;21.56;90.06;101318.72;4993054;28;20019;-72
2023/05/22 15:25:52;;;;;;;31.58;20.15;;;;;;;21.53;87.61;101324.78;5012558;28;20030;-72
2023/05/22 15:28:17;;;;;;;33.33;19.33;;;;;;;21.59;91.04;101315.38;5014142;28;20037;-71
2023/05/22 15:30:43;;;;;;;32.53;19.48;;;;;;;21.66;89.26;101315.03;5013286;28;20021;-73
2023/05/22 15:33:08;;;;;;;35.28;19.90;;;;;;;21.68;86.21;101330.19;4990736;28;20027;-69
2023/05/22 15:35:33;;;;;;;36.67;17.88;;;;;;;21.54;85.07;101319.00;4993593;28;20038;-70
2023/05/22 15:37:59;;;;;;;29.05;18.65;;;;;;;21.43;88.92;101323.72;4993992;28;20058;-69
2023/05/22 15:40:24;;;;;;;36.20;19.10;;;;;;;21.34;87.82;101322.69;4993086;28;20038;-69
2023/05/22 15:42:53;;;;;;;35.03;20.35;;;;;;;21.28;92.50;101317.50;4989121;28;20026;-70
2023/05/22 15:45:19;;;;;;;29.17;19.20;;;;;;;21.31;92.53;101323.25;4997455;28;20462;-68
2023/05/22 15:47:45;;;;;;;38.55;19.98;;;;;;;21.30;90.66;101305.09;4999113;28;20034;-70
2023/05/22 15:50:10;;;;;;;32.05;19.70;;;;;;;21.24;90.84;101311.75;5013212;28;20026;-71
2023/05/22 15:52:36;;;;;;;31.75;18.75;;;;;;;21.33;93.34;101320.22;4996778;28;20034;-71
2023/05/22 15:55:02;;;;;;;34.10;20.67;;;;;;;21.36;89.65;101314.97;4992224;28;20521;-72
2023/05/22 15:57:27;;;;;;;34.38;19.13;;;;;;;21.49;91.33;101320.94;4993747;28;20066;-70
2023/05/22 15:59:53;;;;;;;34.70;17.88;;;;;;;21.76;84.55;101321.28;4993431;28;20029;-70
2023/05/22 16:02:18;;;;;;;33.85;16.40;;;;;;;22.03;80.77;101317.19;4989652;28;20389;-71
2023/05/22 16:04:43;;;;;;;28.15;15.38;;;;;;;22.23;78.53;101316.13;4991968;28;20038;-71
2023/05/22 16:07:09;;;;;;;31.05;15.63;;;;;;;22.27;76.33;101317.19;4992109;28;20042;-74
